Time;durP1;ratioP1;P1;durP2;ratioP2;P2;SDS_P1;SDS_P2;PMS_P1;PMS_P2;Temp;Humidity;BMP_temperature;BMP_pressure;BME280_temperature;BME280_humidity;BME280_pressure;Samples;Min_cycle;Max_cycle;Signal;HPM_P1;HPM_P2
2022/11/06 00:00:34;;;;;;;3.20;2.47;;;15.00;69.00;;;;;;5065848;28;20053;-72
2022/11/06 00:03:01;;;;;;;3.72;2.40;;;15.00;69.00;;;;;;5033769;28;20053;-72
2022/11/06 00:08:12;;;;;;;4.85;2.47;;;15.00;69.00;;;;;;5032585;28;20045;-72
2022/11/06 00:10:39;;;;;;;3.80;2.67;;;15.00;69.00;;;;;;5032350;28;20069;-72
2022/11/06 00:13:05;;;;;;;3.95;2.65;;;15.00;69.00;;;;;;5032280;28;20049;-73
2022/11/06 00:15:33;;;;;;;4.63;2.55;;;15.00;69.00;;;;;;5032568;28;20056;-73
2022/11/06 00:18:00;;;;;;;4.50;2.60;;;15.00;69.00;;;;;;5032495;28;20053;-73
2022/11/06 00:20:27;;;;;;;3.65;2.63;;;15.00;69.00;;;;;;5032136;28;20057;-73
2022/11/06 00:22:53;;;;;;;4.18;2.63;;;15.00;69.00;;;;;;5032308;28;20053;-73
2022/11/06 00:25:20;;;;;;;4.53;2.63;;;15.00;69.00;;;;;;5033429;28;20046;-73
2022/11/06 00:27:47;;;;;;;4.07;2.53;;;15.00;69.00;;;;;;5032019;28;20059;-73
2022/11/06 00:30:14;;;;;;;3.33;2.50;;;15.00;69.50;;;;;;5032180;28;20136;-73
2022/11/06 00:32:42;;;;;;;3.47;2.55;;;15.00;69.00;;;;;;5031921;28;20167;-73
2022/11/06 00:35:09;;;;;;;4.43;2.30;;;15.00;69.00;;;;;;5032249;28;20057;-73
2022/11/06 00:37:35;;;;;;;3.85;2.42;;;15.00;69.50;;;;;;5033132;28;20057;-73
2022/11/06 00:40:03;;;;;;;4.18;2.78;;;15.00;69.00;;;;;;5031915;28;20076;-73
2022/11/06 00:42:29;;;;;;;3.58;2.50;;;15.00;69.00;;;;;;5032301;28;20049;-73
2022/11/06 00:44:56;;;;;;;3.53;2.30;;;15.00;69.00;;;;;;5032893;28;20045;-73
2022/11/06 00:47:23;;;;;;;4.70;3.00;;;15.00;69.00;;;;;;5031822;28;20145;-73
2022/11/06 00:49:51;;;;;;;3.70;2.40;;;15.00;69.00;;;;;;5031780;28;20628;-73
2022/11/06 00:52:17;;;;;;;4.38;2.80;;;15.00;69.00;;;;;;5032552;28;20052;-73
2022/11/06 00:54:44;;;;;;;3.05;2.40;;;15.00;69.00;;;;;;5031482;28;20140;-73
2022/11/06 00:57:11;;;;;;;4.95;2.55;;;15.00;69.00;;;;;;5031679;28;20049;-73
2022/11/06 00:59:38;;;;;;;4.00;2.55;;;15.00;69.00;;;;;;5032922;28;20087;-73
2022/11/06 01:02:04;;;;;;;3.65;2.40;;;15.00;69.00;;;;;;5031365;28;20056;-73
2022/11/06 01:04:31;;;;;;;3.33;2.35;;;15.00;69.00;;;;;;5031341;28;20045;-73
2022/11/06 01:06:59;;;;;;;4.22;2.47;;;15.00;69.00;;;;;;5031434;28;20060;-73
2022/11/06 01:09:27;;;;;;;3.95;2.40;;;15.00;69.00;;;;;;5031307;28;20053;-73
2022/11/06 01:11:58;;;;;;;3.17;2.20;;;15.00;69.00;;;;;;5032294;28;20078;-73
2022/11/06 01:14:25;;;;;;;3.70;2.25;;;15.00;69.00;;;;;;5031508;28;20483;-72
2022/11/06 01:16:52;;;;;;;3.92;2.45;;;15.00;69.00;;;;;;5032581;28;20049;-72
2022/11/06 01:19:19;;;;;;;3.42;2.33;;;14.90;69.00;;;;;;5031151;28;20506;-72
2022/11/06 01:21:47;;;;;;;3.63;2.25;;;15.00;69.00;;;;;;5031212;28;20056;-72
2022/11/06 01:24:22;;;;;;;3.47;2.45;;;15.00;69.00;;;;;;5031360;28;20053;-72
2022/11/06 01:26:48;;;;;;;3.30;2.45;;;15.00;69.00;;;;;;5032553;28;20053;-72
2022/11/06 01:29:16;;;;;;;3.45;2.30;;;15.00;69.00;;;;;;5030792;28;20056;-72
2022/11/06 01:31:43;;;;;;;3.05;2.20;;;14.90;68.90;;;;;;5030757;28;20057;-72
2022/11/06 01:34:10;;;;;;;2.83;2.08;;;15.00;69.00;;;;;;5030771;28;20391;-72
2022/11/06 01:36:37;;;;;;;4.25;2.65;;;15.00;69.00;;;;;;5030993;28;20079;-72
2022/11/06 01:39:05;;;;;;;3.35;2.17;;;15.00;69.00;;;;;;5031232;28;20111;-72
2022/11/06 01:41:34;;;;;;;3.00;2.35;;;15.00;72.00;;;;;;5030977;28;20506;-72
2022/11/06 01:44:02;;;;;;;3.92;2.25;;;14.90;69.00;;;;;;5030859;28;20057;-72
2022/11/06 01:46:29;;;;;;;2.95;2.30;;;14.90;69.00;;;;;;5030759;28;20053;-72
2022/11/06 01:48:58;;;;;;;3.15;2.00;;;14.90;69.00;;;;;;5031325;28;20053;-72
2022/11/06 01:51:26;;;;;;;3.53;2.40;;;14.90;69.00;;;;;;5030807;28;20505;-72
2022/11/06 01:53:53;;;;;;;3.63;2.45;;;14.90;69.00;;;;;;5030910;28;20061;-72
2022/11/06 01:56:20;;;;;;;2.63;2.03;;;15.00;69.10;;;;;;5031025;28;20054;-72
2022/11/06 01:58:49;;;;;;;3.25;2.30;;;14.90;68.90;;;;;;5030570;28;20059;-72
2022/11/06 02:01:16;;;;;;;3.17;2.10;;;14.90;69.00;;;;;;5030507;28;20053;-72
2022/11/06 02:03:46;;;;;;;3.75;2.50;;;14.90;69.00;;;;;;5030805;28;20531;-72
2022/11/06 02:06:12;;;;;;;3.40;2.40;;;14.90;69.00;;;;;;5030697;28;20136;-72
2022/11/06 02:08:39;;;;;;;4.00;2.53;;;14.90;69.50;;;;;;5031177;28;20132;-72
2022/11/06 02:11:06;;;;;;;3.55;2.35;;;14.90;69.00;;;;;;5034653;28;20049;-72
2022/11/06 02:13:36;;;;;;;3.97;2.22;;;14.90;69.00;;;;;;5034226;28;20050;-72
2022/11/06 02:16:09;;;;;;;2.85;2.08;;;14.90;69.00;;;;;;5035673;28;20469;-72
2022/11/06 02:18:47;;;;;;;3.38;2.25;;;14.90;69.00;;;;;;5034934;28;20057;-72
2022/11/06 02:21:26;;;;;;;2.67;2.00;;;14.90;69.00;;;;;;5034385;28;20072;-72
2022/11/06 02:24:32;;;;;;;2.50;2.10;;;14.90;69.00;;;;;;5034754;28;20076;-72
2022/11/06 02:27:03;;;;;;;3.17;2.30;;;14.90;68.90;;;;;;5032997;28;20145;-72
2022/11/06 02:29:32;;;;;;;3.20;2.40;;;14.90;69.00;;;;;;5034579;28;20144;-72
2022/11/06 02:31:59;;;;;;;2.95;2.10;;;14.90;69.00;;;;;;5034174;28;20472;-72
2022/11/06 02:34:26;;;;;;;2.70;2.10;;;14.90;69.00;;;;;;5034363;28;20057;-72
2022/11/06 02:36:56;;;;;;;2.55;2.00;;;14.90;69.00;;;;;;5034249;28;20049;-72
2022/11/06 02:39:23;;;;;;;3.45;2.35;;;14.90;69.00;;;;;;5034465;28;20063;-72
2022/11/06 02:41:50;;;;;;;2.55;1.98;;;14.90;69.10;;;;;;5034155;28;20055;-72
2022/11/06 02:44:20;;;;;;;2.90;2.03;;;14.90;69.10;;;;;;5034137;28;20068;-72
2022/11/06 02:46:49;;;;;;;2.55;1.90;;;14.90;69.10;;;;;;5034067;28;20049;-72
2022/11/06 02:49:18;;;;;;;2.45;2.10;;;14.80;69.00;;;;;;5033986;28;20079;-72
2022/11/06 02:51:46;;;;;;;4.88;2.40;;;14.90;69.10;;;;;;5033859;28;20056;-72
2022/11/06 02:54:13;;;;;;;2.45;1.92;;;14.80;69.10;;;;;;5033491;28;20045;-72
2022/11/06 02:56:41;;;;;;;2.70;1.92;;;14.80;69.10;;;;;;5034025;28;20515;-72
2022/11/06 02:59:10;;;;;;;2.80;1.90;;;14.90;69.10;;;;;;5033901;28;20064;-72
2022/11/06 03:01:39;;;;;;;2.90;2.10;;;14.80;69.10;;;;;;5033496;28;20064;-72
2022/11/06 03:04:08;;;;;;;2.85;2.00;;;14.80;69.10;;;;;;5034012;28;20490;-72
2022/11/06 03:06:37;;;;;;;4.53;2.42;;;14.80;69.10;;;;;;5034066;28;20089;-72
2022/11/06 03:09:06;;;;;;;3.38;2.13;;;14.80;69.10;;;;;;5034863;28;20060;-72
2022/11/06 03:11:34;;;;;;;3.17;2.10;;;14.80;69.60;;;;;;5033654;28;20057;-72
2022/11/06 03:14:04;;;;;;;2.72;1.98;;;14.80;69.10;;;;;;5033107;28;20049;-72
2022/11/06 03:16:37;;;;;;;2.95;2.13;;;14.80;69.10;;;;;;5033498;28;20053;-72
2022/11/06 03:19:07;;;;;;;3.38;2.00;;;14.80;69.10;;;;;;5033759;28;20140;-72
2022/11/06 03:21:38;;;;;;;3.38;2.30;;;14.80;69.10;;;;;;5033059;28;20405;-72
2022/11/06 03:24:10;;;;;;;2.63;2.08;;;14.80;69.10;;;;;;5034547;28;20510;-72
2022/11/06 03:26:38;;;;;;;2.20;1.63;;;14.80;69.10;;;;;;5033487;28;20076;-72
2022/11/06 03:29:09;;;;;;;2.97;2.00;;;14.80;69.10;;;;;;5033280;28;20087;-72
2022/11/06 03:31:37;;;;;;;2.85;2.00;;;14.80;69.10;;;;;;5033331;28;20479;-72
2022/11/06 03:34:06;;;;;;;2.05;1.80;;;14.80;69.10;;;;;;5032832;28;20049;-72
2022/11/06 03:36:34;;;;;;;2.78;1.95;;;14.80;69.10;;;;;;5033077;28;20061;-72
2022/11/06 03:39:01;;;;;;;2.40;1.80;;;14.80;69.10;;;;;;5033100;28;20054;-72
2022/11/06 03:41:31;;;;;;;2.63;1.98;;;14.80;69.20;;;;;;5032895;28;20079;-72
2022/11/06 03:43:59;;;;;;;2.60;1.80;;;14.80;69.20;;;;;;5066136;28;20056;-72
2022/11/06 03:46:25;;;;;;;3.67;1.98;;;14.80;69.20;;;;;;5033061;28;20053;-72
2022/11/06 03:48:53;;;;;;;3.63;1.95;;;14.80;69.10;;;;;;5033218;28;20053;-72
2022/11/06 03:51:23;;;;;;;2.78;1.95;;;14.80;69.10;;;;;;5032912;28;20480;-73
2022/11/06 03:53:52;;;;;;;3.40;2.08;;;14.80;69.10;;;;;;5032556;28;20045;-73
2022/11/06 03:56:21;;;;;;;3.17;1.90;;;14.80;69.20;;;;;;5032767;28;20053;-73
2022/11/06 03:58:48;;;;;;;2.53;1.90;;;14.80;69.20;;;;;;5034251;28;20136;-73
2022/11/06 04:01:16;;;;;;;2.10;1.70;;;14.80;69.20;;;;;;5032677;28;20059;-73
2022/11/06 04:03:44;;;;;;;2.22;1.80;;;14.80;69.10;;;;;;5032894;28;20049;-73
2022/11/06 04:06:17;;;;;;;2.38;1.80;;;14.80;69.10;;;;;;5032589;28;20049;-73
2022/11/06 04:14:14;;;;;;;3.40;1.95;;;14.80;69.20;;;;;;5032323;28;20136;-73
2022/11/06 04:16:42;;;;;;;3.03;1.67;;;14.80;69.20;;;;;;5032536;28;20054;-73
2022/11/06 04:19:13;;;;;;;2.22;1.80;;;14.70;69.10;;;;;;5032766;28;20132;-73
2022/11/06 04:21:56;;;;;;;2.60;1.80;;;14.70;69.20;;;;;;5065544;28;20407;-73
2022/11/06 04:27:27;;;;;;;2.78;2.00;;;14.70;69.20;;;;;;5033322;28;20054;-73
2022/11/06 04:30:01;;;;;;;2.40;1.80;;;15.20;71.90;;;;;;5032150;28;20060;-73
2022/11/06 04:32:32;;;;;;;3.40;1.80;;;14.70;69.20;;;;;;5031880;28;20092;-73
2022/11/06 04:35:02;;;;;;;2.17;1.70;;;14.70;69.20;;;;;;5032152;28;20148;-72
2022/11/06 04:37:32;;;;;;;2.88;1.88;;;14.70;69.30;;;;;;5032180;28;20508;-72
2022/11/06 04:40:04;;;;;;;2.00;1.70;;;14.70;69.20;;;;;;5032688;28;20402;-72
2022/11/06 04:42:34;;;;;;;2.10;1.80;;;14.70;69.10;;;;;;5032308;28;20057;-73
2022/11/06 04:45:02;;;;;;;2.67;1.80;;;14.70;69.20;;;;;;5031692;28;20064;-73
2022/11/06 04:47:29;;;;;;;2.00;1.65;;;14.70;69.20;;;;;;5032185;28;20554;-72
2022/11/06 04:49:57;;;;;;;2.88;1.75;;;14.70;69.10;;;;;;5031779;28;20080;-73
2022/11/06 04:52:25;;;;;;;2.17;1.70;;;14.70;69.10;;;;;;5031927;28;20188;-72
2022/11/06 04:54:52;;;;;;;2.95;1.92;;;14.70;69.20;;;;;;5032014;28;20042;-72
2022/11/06 04:57:21;;;;;;;2.47;1.70;;;14.70;69.10;;;;;;5032506;28;20068;-73
2022/11/06 04:59:47;;;;;;;1.98;1.50;;;14.70;69.20;;;;;;5031780;28;20060;-73
2022/11/06 05:02:14;;;;;;;2.42;1.63;;;14.70;69.10;;;;;;5031653;28;20075;-73
2022/11/06 05:04:41;;;;;;;4.35;1.88;;;14.70;69.10;;;;;;5032653;28;20053;-73
2022/11/06 05:07:08;;;;;;;2.05;1.65;;;14.70;69.10;;;;;;5031154;28;20053;-72
2022/11/06 05:09:35;;;;;;;3.17;1.80;;;14.70;69.10;;;;;;5031676;28;20528;-73
2022/11/06 05:12:01;;;;;;;2.63;1.80;;;14.70;69.20;;;;;;5031255;28;20057;-73
2022/11/06 05:14:31;;;;;;;2.08;1.60;;;14.70;69.20;;;;;;5031249;28;20129;-73
2022/11/06 05:16:58;;;;;;;4.45;1.80;;;14.70;69.10;;;;;;5032287;28;20077;-73
2022/11/06 05:19:24;;;;;;;3.67;1.70;;;14.70;69.10;;;;;;5031692;28;20053;-72
2022/11/06 05:24:35;;;;;;;2.72;1.73;;;15.30;72.50;;;;;;5031340;28;20049;-72
2022/11/06 05:27:02;;;;;;;1.90;1.40;;;14.70;69.20;;;;;;5032477;28;20076;-72
2022/11/06 05:29:30;;;;;;;2.17;1.70;;;14.70;69.20;;;;;;5032036;28;20049;-72
2022/11/06 05:31:57;;;;;;;2.17;1.60;;;14.70;69.20;;;;;;5031238;28;20080;-72
2022/11/06 05:34:23;;;;;;;2.95;1.75;;;14.70;69.20;;;;;;5031065;28;20128;-72
2022/11/06 05:36:50;;;;;;;2.50;1.65;;;14.70;69.20;;;;;;5031010;28;20513;-72
2022/11/06 05:39:17;;;;;;;2.20;1.77;;;14.70;69.20;;;;;;5030684;28;20053;-73
2022/11/06 05:41:43;;;;;;;2.17;1.60;;;14.70;69.20;;;;;;5030859;28;20136;-73
2022/11/06 05:44:10;;;;;;;2.00;1.48;;;14.70;69.20;;;;;;5030342;28;20501;-73
2022/11/06 05:46:38;;;;;;;2.75;1.65;;;14.70;69.20;;;;;;5031073;28;20140;-73
2022/11/06 05:49:05;;;;;;;2.97;1.80;;;14.70;69.20;;;;;;5030539;28;20418;-72
2022/11/06 05:51:32;;;;;;;3.10;1.80;;;14.70;69.20;;;;;;5030713;28;20053;-73
2022/11/06 05:53:58;;;;;;;2.17;1.60;;;14.70;69.20;;;;;;5030530;28;20060;-72
2022/11/06 05:56:25;;;;;;;3.40;1.70;;;14.70;69.20;;;;;;5030980;28;20406;-72
2022/11/06 05:58:52;;;;;;;3.08;1.73;;;14.70;69.20;;;;;;5030882;28;20055;-73
2022/11/06 06:01:18;;;;;;;2.10;1.67;;;14.70;69.20;;;;;;5031760;28;20051;-73
2022/11/06 06:03:46;;;;;;;2.45;1.65;;;14.70;69.20;;;;;;5030449;28;20045;-73
2022/11/06 06:06:13;;;;;;;2.55;1.75;;;14.70;69.20;;;;;;5030710;28;20050;-73
2022/11/06 06:08:40;;;;;;;2.08;1.60;;;14.70;69.20;;;;;;5031009;28;20491;-72
2022/11/06 06:11:07;;;;;;;2.47;1.70;;;14.70;69.20;;;;;;5030358;28;20053;-73
2022/11/06 06:13:35;;;;;;;2.28;1.60;;;14.70;69.20;;;;;;5030494;28;20052;-72
2022/11/06 06:16:02;;;;;;;1.67;1.42;;;14.70;69.20;;;;;;5030697;28;20132;-73
2022/11/06 06:18:29;;;;;;;2.67;1.63;;;14.70;72.30;;;;;;5030540;28;20062;-73
2022/11/06 06:20:58;;;;;;;2.08;1.52;;;14.60;69.20;;;;;;5030539;28;20071;-73
2022/11/06 06:23:25;;;;;;;2.03;1.67;;;14.70;69.20;;;;;;5030431;28;20077;-73
2022/11/06 06:25:52;;;;;;;2.40;1.50;;;14.70;69.20;;;;;;5030599;28;20144;-73
2022/11/06 06:28:18;;;;;;;1.90;1.50;;;14.70;69.20;;;;;;5030628;28;20057;-73
2022/11/06 06:30:45;;;;;;;2.08;1.55;;;14.70;69.20;;;;;;5030512;28;20176;-72
2022/11/06 06:33:12;;;;;;;2.50;1.80;;;14.70;69.20;;;;;;5030051;28;20049;-72
2022/11/06 06:35:38;;;;;;;2.35;1.73;;;14.70;69.20;;;;;;5031533;28;20049;-73
2022/11/06 06:38:06;;;;;;;2.90;1.50;;;14.70;69.20;;;;;;5030699;28;20094;-73
2022/11/06 06:40:34;;;;;;;1.90;1.50;;;14.70;69.20;;;;;;5030494;28;20049;-72
2022/11/06 06:43:01;;;;;;;1.83;1.50;;;14.70;69.20;;;;;;5030061;28;20103;-73
2022/11/06 06:45:28;;;;;;;2.10;1.48;;;14.70;69.20;;;;;;5031177;28;20045;-73
2022/11/06 06:47:55;;;;;;;1.77;1.50;;;14.70;69.20;;;;;;5030348;28;20056;-72
2022/11/06 06:50:21;;;;;;;2.03;1.55;;;14.70;69.20;;;;;;5030266;28;20054;-72
2022/11/06 06:52:48;;;;;;;2.53;1.40;;;14.70;69.20;;;;;;5030477;28;20057;-72
2022/11/06 06:55:16;;;;;;;2.00;1.30;;;14.60;69.10;;;;;;5031185;28;20128;-72
2022/11/06 06:57:43;;;;;;;1.98;1.40;;;14.60;69.20;;;;;;5034919;28;20128;-72
2022/11/06 07:00:10;;;;;;;2.25;1.40;;;14.70;69.20;;;;;;5033332;28;20056;-73
2022/11/06 07:02:37;;;;;;;1.83;1.40;;;14.70;69.20;;;;;;5035016;28;20137;-72
2022/11/06 07:05:04;;;;;;;1.58;1.30;;;14.60;69.20;;;;;;5033659;28;20060;-72
2022/11/06 07:07:32;;;;;;;2.67;1.48;;;14.60;69.20;;;;;;5034169;28;20057;-73
2022/11/06 07:09:58;;;;;;;2.88;1.30;;;14.70;69.20;;;;;;5034960;28;20049;-73
2022/11/06 07:12:27;;;;;;;2.20;1.40;;;14.60;69.10;;;;;;5034368;28;20091;-73
2022/11/06 07:14:53;;;;;;;2.17;1.30;;;14.60;69.20;;;;;;5029999;28;20084;-73
2022/11/06 07:17:20;;;;;;;2.30;1.50;;;14.70;69.20;;;;;;5013964;28;20065;-73
2022/11/06 07:19:47;;;;;;;3.72;1.42;;;14.70;69.30;;;;;;5029044;28;20517;-72
2022/11/06 07:22:14;;;;;;;5.20;1.60;;;14.70;69.30;;;;;;5066635;28;20060;-73
2022/11/06 07:24:40;;;;;;;2.13;1.58;;;14.70;69.30;;;;;;5034647;28;20045;-72
2022/11/06 07:27:07;;;;;;;2.63;1.60;;;14.70;69.30;;;;;;5066167;28;20049;-72
2022/11/06 07:29:35;;;;;;;2.50;1.45;;;14.70;69.30;;;;;;5057954;28;20578;-73
2022/11/06 07:32:02;;;;;;;2.72;1.55;;;14.80;69.30;;;;;;5033059;28;20148;-72
2022/11/06 07:34:29;;;;;;;2.15;1.45;;;14.80;69.20;;;;;;5063372;28;20059;-72
2022/11/06 07:36:55;;;;;;;1.55;1.40;;;14.80;69.20;;;;;;5066753;28;20123;-72
2022/11/06 07:39:22;;;;;;;2.22;1.33;;;14.90;69.10;;;;;;5066328;28;20409;-72
2022/11/06 07:41:49;;;;;;;1.83;1.20;;;14.90;69.10;;;;;;5066071;28;20057;-72
2022/11/06 07:44:16;;;;;;;1.70;1.35;;;15.00;69.00;;;;;;5049644;28;20045;-72
2022/11/06 07:46:44;;;;;;;2.53;1.40;;;15.00;68.90;;;;;;5015635;28;20407;-72
2022/11/06 07:49:10;;;;;;;2.17;1.40;;;15.00;68.90;;;;;;5032721;28;20053;-72
2022/11/06 07:51:37;;;;;;;1.90;1.40;;;15.10;68.90;;;;;;5034226;28;20049;-73
2022/11/06 07:54:04;;;;;;;2.85;1.30;;;15.10;68.80;;;;;;5032729;28;20099;-72
2022/11/06 07:56:30;;;;;;;3.33;1.30;;;15.10;69.30;;;;;;5034100;28;20506;-72
2022/11/06 07:58:57;;;;;;;1.63;1.30;;;15.20;68.70;;;;;;5032665;28;20059;-72
2022/11/06 08:01:24;;;;;;;1.95;1.20;;;15.20;68.70;;;;;;5032209;28;20056;-72
2022/11/06 08:03:52;;;;;;;2.25;1.50;;;15.20;69.10;;;;;;5032702;28;20067;-72
2022/11/06 08:06:19;;;;;;;2.25;1.27;;;15.30;68.60;;;;;;5033435;28;20513;-72
2022/11/06 08:08:45;;;;;;;1.85;1.30;;;15.30;68.60;;;;;;5032427;28;20059;-72
2022/11/06 08:11:12;;;;;;;1.95;1.23;;;15.30;68.60;;;;;;5048841;28;20144;-72
2022/11/06 08:13:39;;;;;;;2.95;1.48;;;15.30;68.50;;;;;;5049204;28;20055;-72
2022/11/06 08:16:06;;;;;;;2.10;1.30;;;15.40;68.50;;;;;;5032477;28;20128;-72
2022/11/06 08:18:33;;;;;;;1.50;1.23;;;15.40;68.50;;;;;;5032457;28;20061;-72
2022/11/06 08:21:01;;;;;;;2.17;1.30;;;15.40;68.40;;;;;;5032529;28;20144;-72
2022/11/06 08:23:28;;;;;;;2.83;1.40;;;15.40;68.40;;;;;;5032508;28;20056;-72
2022/11/06 08:25:55;;;;;;;1.85;1.25;;;15.50;68.40;;;;;;5036026;28;20075;-72
2022/11/06 08:28:22;;;;;;;2.42;1.20;;;15.50;68.30;;;;;;5036338;28;20057;-72
2022/11/06 08:30:49;;;;;;;1.40;1.10;;;15.50;68.20;;;;;;5032181;28;20059;-72
2022/11/06 08:33:15;;;;;;;2.05;1.30;;;15.50;68.10;;;;;;5032231;28;20054;-72
2022/11/06 08:35:42;;;;;;;1.85;1.13;;;15.50;68.10;;;;;;5031378;28;20050;-72
2022/11/06 08:38:10;;;;;;;1.67;1.20;;;15.60;68.10;;;;;;5032823;28;20401;-74
2022/11/06 08:40:37;;;;;;;2.38;1.10;;;15.60;68.10;;;;;;5028791;28;20132;-71
2022/11/06 08:43:07;;;;;;;1.30;1.10;;;15.60;68.00;;;;;;5026405;28;20061;-71
2022/11/06 08:45:36;;;;;;;2.17;1.00;;;15.60;68.00;;;;;;5031969;28;20060;-71
2022/11/06 08:48:03;;;;;;;1.85;1.33;;;15.70;68.10;;;;;;5033212;28;20406;-71
2022/11/06 08:50:30;;;;;;;1.52;1.00;;;15.70;68.00;;;;;;5032597;28;20398;-72
2022/11/06 08:52:57;;;;;;;3.03;1.30;;;15.70;67.90;;;;;;5031967;28;20482;-71
2022/11/06 08:55:25;;;;;;;3.92;1.30;;;15.70;67.90;;;;;;5031423;28;20560;-71
2022/11/06 08:57:54;;;;;;;4.75;1.55;;;15.80;68.00;;;;;;5040058;28;20049;-70
2022/11/06 09:00:21;;;;;;;4.85;1.55;;;15.80;68.00;;;;;;5054487;28;20128;-70
2022/11/06 09:02:47;;;;;;;3.72;1.48;;;15.70;68.00;;;;;;5030954;28;20056;-71
2022/11/06 09:05:14;;;;;;;8.50;1.67;;;15.80;68.00;;;;;;5031347;28;20482;-70
2022/11/06 09:07:41;;;;;;;3.38;1.70;;;15.80;68.10;;;;;;5027788;28;20487;-70
2022/11/06 09:10:08;;;;;;;3.05;1.60;;;15.90;68.10;;;;;;5016473;28;20516;-70
2022/11/06 09:12:36;;;;;;;4.78;1.50;;;15.90;68.10;;;;;;5031966;28;20045;-70
2022/11/06 09:15:04;;;;;;;4.32;1.30;;;15.90;68.10;;;;;;5030911;28;20055;-70
2022/11/06 09:17:30;;;;;;;4.85;1.38;;;15.90;68.10;;;;;;5032054;28;20045;-70
2022/11/06 09:19:57;;;;;;;4.20;1.40;;;16.00;68.20;;;;;;5033955;28;20072;-70
2022/11/06 09:22:24;;;;;;;7.15;1.50;;;16.00;68.20;;;;;;5028178;28;20129;-70
2022/11/06 09:24:50;;;;;;;2.40;1.17;;;16.00;68.10;;;;;;5030916;28;20056;-70
2022/11/06 09:27:17;;;;;;;5.63;1.30;;;16.00;68.10;;;;;;5055839;28;20075;-70
2022/11/06 09:29:46;;;;;;;3.40;1.63;;;16.00;68.10;;;;;;5030737;28;20053;-71
2022/11/06 09:32:13;;;;;;;2.08;1.13;;;16.10;68.10;;;;;;5027391;28;20061;-70
2022/11/06 09:34:39;;;;;;;3.13;1.30;;;16.10;68.10;;;;;;5011231;28;20509;-71
2022/11/06 09:37:06;;;;;;;2.92;1.30;;;16.10;68.10;;;;;;5024697;28;20057;-71
2022/11/06 09:39:33;;;;;;;1.92;1.27;;;16.10;68.10;;;;;;5055488;28;20055;-71
2022/11/06 09:42:00;;;;;;;4.22;1.67;;;16.20;68.60;;;;;;5031538;28;20410;-72
2022/11/06 09:44:34;;;;;;;3.33;1.30;;;16.10;68.00;;;;;;5031478;28;20049;-72
2022/11/06 09:47:03;;;;;;;2.25;1.30;;;16.20;68.10;;;;;;5031320;28;20049;-73
2022/11/06 09:49:32;;;;;;;2.47;1.30;;;16.20;68.10;;;;;;5030407;28;20145;-73
2022/11/06 09:52:00;;;;;;;5.32;1.20;;;16.20;68.00;;;;;;5030918;28;20135;-73
2022/11/06 09:54:28;;;;;;;1.73;1.30;;;16.20;68.00;;;;;;5030037;28;20128;-72
2022/11/06 09:56:58;;;;;;;1.60;1.20;;;16.20;68.00;;;;;;5029529;28;20071;-72
2022/11/06 09:59:24;;;;;;;2.78;1.30;;;16.20;68.10;;;;;;5041110;28;20140;-72
2022/11/06 10:01:53;;;;;;;3.95;1.23;;;16.20;68.00;;;;;;5055201;28;20057;-72
2022/11/06 10:04:41;;;;;;;2.33;1.10;;;16.20;68.00;;;;;;5040423;28;20099;-72
2022/11/06 10:07:13;;;;;;;2.88;1.23;;;16.30;68.00;;;;;;5041013;28;20056;-72
2022/11/06 10:09:40;;;;;;;3.85;1.45;;;16.30;68.00;;;;;;5040760;28;20054;-72
2022/11/06 10:12:10;;;;;;;2.35;1.10;;;16.30;68.00;;;;;;5038615;28;20079;-72
2022/11/06 10:14:56;;;;;;;2.75;1.20;;;16.30;68.00;;;;;;5040647;28;20052;-72
2022/11/06 10:17:30;;;;;;;2.03;1.25;;;16.40;68.00;;;;;;5039697;28;20053;-72
2022/11/06 10:20:02;;;;;;;3.00;1.30;;;16.30;68.00;;;;;;5033878;28;20053;-73
2022/11/06 10:22:31;;;;;;;2.83;1.20;;;16.40;68.00;;;;;;5035373;28;20132;-73
2022/11/06 10:25:00;;;;;;;2.45;1.23;;;16.40;68.10;;;;;;5028610;28;20064;-73
2022/11/06 10:27:28;;;;;;;2.47;1.30;;;16.40;68.00;;;;;;5019934;28;20136;-73
2022/11/06 10:30:08;;;;;;;1.67;1.10;;;16.40;68.00;;;;;;5026990;28;20458;-73
2022/11/06 10:32:50;;;;;;;2.83;1.35;;;16.40;68.00;;;;;;5034369;28;20054;-72
2022/11/06 10:35:20;;;;;;;1.88;1.08;;;16.40;67.90;;;;;;5034342;28;20046;-73
2022/11/06 10:37:53;;;;;;;3.28;1.25;;;16.40;67.90;;;;;;5034779;28;20049;-73
2022/11/06 10:40:22;;;;;;;2.50;1.30;;;16.50;68.00;;;;;;5034348;28;20068;-73
2022/11/06 10:42:55;;;;;;;3.13;1.50;;;16.50;67.90;;;;;;5034296;28;20142;-73
2022/11/06 10:45:21;;;;;;;3.60;1.38;;;16.50;68.00;;;;;;5034100;28;20053;-73
2022/11/06 10:47:49;;;;;;;2.45;1.10;;;16.50;67.90;;;;;;5035341;28;20045;-73
2022/11/06 10:50:16;;;;;;;3.20;1.17;;;16.50;67.90;;;;;;5035688;28;20060;-73
2022/11/06 10:52:54;;;;;;;1.52;1.13;;;16.50;67.90;;;;;;5043585;28;20056;-72
2022/11/06 10:55:41;;;;;;;1.83;1.10;;;16.50;67.90;;;;;;5040930;28;20076;-72
2022/11/06 10:58:08;;;;;;;1.05;0.98;;;18.90;69.20;;;;;;5036951;28;20060;-73
2022/11/06 11:00:35;;;;;;;1.88;1.20;;;16.50;67.90;;;;;;5059672;28;20045;-72
2022/11/06 11:03:03;;;;;;;2.28;1.20;;;16.50;67.90;;;;;;5033400;28;20057;-72
2022/11/06 11:05:37;;;;;;;1.33;1.20;;;16.60;68.00;;;;;;5033457;28;20053;-72
2022/11/06 11:08:05;;;;;;;1.55;1.10;;;16.60;67.90;;;;;;5039037;28;20147;-72
2022/11/06 11:10:33;;;;;;;2.80;1.10;;;16.60;67.90;;;;;;5042064;28;20063;-72
2022/11/06 11:13:01;;;;;;;2.58;1.00;;;16.60;67.90;;;;;;5044102;28;20128;-72
2022/11/06 11:15:28;;;;;;;3.33;1.00;;;16.60;67.90;;;;;;5042579;28;20050;-72
2022/11/06 11:18:17;;;;;;;2.42;1.02;;;16.60;67.80;;;;;;5041893;28;20056;-72
2022/11/06 11:20:45;;;;;;;3.38;1.20;;;16.70;67.90;;;;;;5029943;28;20053;-72
2022/11/06 11:23:16;;;;;;;1.45;1.00;;;16.60;67.80;;;;;;5029784;28;20053;-72
2022/11/06 11:25:43;;;;;;;1.88;1.10;;;16.70;67.90;;;;;;5014412;28;20050;-72
2022/11/06 11:28:23;;;;;;;3.15;1.15;;;16.70;67.80;;;;;;5042582;28;20628;-72
2022/11/06 11:30:54;;;;;;;3.03;1.15;;;16.70;67.80;;;;;;5032295;28;20062;-72
2022/11/06 11:33:21;;;;;;;1.48;1.00;;;16.70;67.80;;;;;;5055608;28;20053;-73
2022/11/06 11:35:48;;;;;;;1.90;1.10;;;16.70;67.80;;;;;;5022862;28;20051;-72
2022/11/06 11:38:17;;;;;;;1.80;1.13;;;16.70;67.80;;;;;;5032916;28;20045;-72
2022/11/06 11:40:44;;;;;;;2.05;1.15;;;16.70;67.80;;;;;;5032490;28;20053;-72
2022/11/06 11:43:32;;;;;;;1.63;1.02;;;16.70;70.20;;;;;;5031810;28;20107;-72
2022/11/06 11:46:20;;;;;;;2.00;1.10;;;16.70;67.70;;;;;;5029496;28;20057;-73
2022/11/06 11:48:48;;;;;;;2.38;1.20;;;16.70;67.70;;;;;;5033291;28;20053;-73
2022/11/06 11:51:39;;;;;;;3.55;1.40;;;16.70;67.70;;;;;;5032693;28;20518;-71
2022/11/06 11:54:17;;;;;;;2.58;1.17;;;16.70;67.80;;;;;;5046370;28;20072;-72
2022/11/06 11:56:44;;;;;;;2.00;1.20;;;16.70;67.90;;;;;;5011261;28;20061;-72
2022/11/06 11:59:16;;;;;;;2.15;1.10;;;16.60;67.90;;;;;;5012010;28;20407;-72
2022/11/06 12:01:42;;;;;;;1.67;1.13;;;16.70;68.00;;;;;;5011753;28;20064;-71
2022/11/06 12:04:14;;;;;;;3.00;1.20;;;16.60;68.10;;;;;;5019039;28;20053;-72
2022/11/06 12:06:53;;;;;;;1.52;1.10;;;16.60;68.20;;;;;;5031335;28;20058;-72
2022/11/06 12:09:21;;;;;;;4.70;1.17;;;16.60;68.40;;;;;;5031534;28;20053;-72
2022/11/06 12:11:48;;;;;;;3.47;1.20;;;16.60;68.40;;;;;;5032180;28;20057;-72
2022/11/06 12:14:36;;;;;;;2.80;1.20;;;16.60;68.50;;;;;;5032374;28;20190;-72
2022/11/06 12:17:13;;;;;;;2.47;1.17;;;16.60;68.50;;;;;;5032491;28;20107;-72
2022/11/06 12:19:41;;;;;;;1.50;1.15;;;16.60;68.60;;;;;;5012383;28;20057;-72
2022/11/06 12:22:11;;;;;;;3.13;1.00;;;16.50;68.60;;;;;;5012490;28;20137;-72
2022/11/06 12:24:41;;;;;;;2.90;1.05;;;16.50;68.60;;;;;;5012141;28;20050;-74
2022/11/06 12:27:11;;;;;;;2.42;1.23;;;16.50;68.60;;;;;;5014897;28;20056;-74
2022/11/06 12:29:39;;;;;;;2.13;1.10;;;16.50;68.70;;;;;;5032057;28;20071;-74
2022/11/06 12:32:08;;;;;;;3.28;1.05;;;16.50;68.70;;;;;;5031085;28;20076;-74
2022/11/06 12:34:38;;;;;;;3.10;1.13;;;16.50;68.70;;;;;;5031983;28;20132;-74
2022/11/06 12:37:14;;;;;;;2.03;1.20;;;16.50;68.60;;;;;;5032264;28;20049;-73
2022/11/06 12:39:43;;;;;;;1.90;1.10;;;16.50;68.50;;;;;;5031338;28;20049;-73
2022/11/06 12:42:10;;;;;;;1.60;1.02;;;16.50;68.40;;;;;;5031927;28;20137;-74
2022/11/06 12:44:37;;;;;;;1.73;1.00;;;16.50;68.40;;;;;;5031410;28;20137;-73
2022/11/06 12:47:06;;;;;;;3.10;1.10;;;16.60;68.40;;;;;;5023616;28;20057;-74
2022/11/06 12:49:46;;;;;;;2.50;1.10;;;16.60;68.40;;;;;;5031281;28;20068;-73
2022/11/06 12:52:19;;;;;;;1.70;1.20;;;16.60;68.40;;;;;;5032715;28;20053;-73
2022/11/06 12:54:59;;;;;;;1.73;1.15;;;16.60;69.00;;;;;;5030667;28;20580;-73
2022/11/06 12:57:29;;;;;;;3.72;1.45;;;16.60;68.50;;;;;;5060650;28;20055;-73
2022/11/06 13:00:04;;;;;;;2.45;1.20;;;16.60;68.60;;;;;;5039032;28;20064;-73
2022/11/06 13:02:38;;;;;;;1.77;1.20;;;16.60;68.60;;;;;;5040278;28;20060;-73
2022/11/06 13:05:07;;;;;;;4.05;1.40;;;16.60;68.70;;;;;;5034558;28;20132;-73
2022/11/06 13:07:50;;;;;;;1.65;1.20;;;16.60;68.80;;;;;;5031739;28;20401;-74
2022/11/06 13:10:24;;;;;;;2.72;1.40;;;16.50;68.70;;;;;;5048530;28;20060;-73